sensor_id;sensor_type;location;lat;lon;timestamp;pressure;altitude;pressure_sealevel;temperature;humidity
60725;BME280;59881;36.722;-4.462;2023-03-16T00:00:39;100886.44;;;12.65;50.06
60725;BME280;59881;36.722;-4.462;2023-03-16T00:03:05;100820.09;;;12.07;50.16
60725;BME280;59881;36.722;-4.462;2023-03-16T00:05:30;100884.44;;;12.55;50.47
60725;BME280;59881;36.722;-4.462;2023-03-16T00:07:56;100720.00;;;10.75;50.30
60725;BME280;59881;36.722;-4.462;2023-03-16T00:10:22;100452.22;;;9.85;50.53
60725;BME280;59881;36.722;-4.462;2023-03-16T00:12:52;100790.75;;;11.86;50.79
60725;BME280;59881;36.722;-4.462;2023-03-16T00:15:18;100073.59;;;7.50;50.29
60725;BME280;59881;36.722;-4.462;2023-03-16T00:17:43;100827.56;;;12.13;50.77
60725;BME280;59881;36.722;-4.462;2023-03-16T00:20:15;100491.72;;;10.10;50.51
60725;BME280;59881;36.722;-4.462;2023-03-16T00:22:42;100422.00;;;9.78;50.23
60725;BME280;59881;36.722;-4.462;2023-03-16T00:25:09;100777.69;;;11.58;49.99
60725;BME280;59881;36.722;-4.462;2023-03-16T00:27:35;100802.03;;;11.75;49.98
60725;BME280;59881;36.722;-4.462;2023-03-16T00:30:00;100931.09;;;12.31;50.00
60725;BME280;59881;36.722;-4.462;2023-03-16T00:32:29;100869.31;;;12.57;49.79
60725;BME280;59881;36.722;-4.462;2023-03-16T00:34:56;100838.69;;;12.18;50.17
60725;BME280;59881;36.722;-4.462;2023-03-16T00:37:23;100869.78;;;12.51;50.01
60725;BME280;59881;36.722;-4.462;2023-03-16T00:39:50;100828.78;;;12.33;50.07
60725;BME280;59881;36.722;-4.462;2023-03-16T00:42:17;100477.63;;;10.24;49.86
60725;BME280;59881;36.722;-4.462;2023-03-16T00:44:44;100839.03;;;12.37;49.55
60725;BME280;59881;36.722;-4.462;2023-03-16T00:47:11;100830.19;;;12.26;49.87
60725;BME280;59881;36.722;-4.462;2023-03-16T00:49:41;100867.56;;;12.45;50.18
60725;BME280;59881;36.722;-4.462;2023-03-16T00:52:09;100864.06;;;12.45;50.34
60725;BME280;59881;36.722;-4.462;2023-03-16T00:54:39;100867.88;;;12.40;50.21
60725;BME280;59881;36.722;-4.462;2023-03-16T00:57:07;100860.41;;;12.34;50.81
60725;BME280;59881;36.722;-4.462;2023-03-16T00:59:33;100872.13;;;12.30;50.76
60725;BME280;59881;36.722;-4.462;2023-03-16T01:02:03;100865.38;;;12.26;51.01
60725;BME280;59881;36.722;-4.462;2023-03-16T01:04:29;100871.72;;;12.24;51.16
60725;BME280;59881;36.722;-4.462;2023-03-16T01:06:54;100326.53;;;8.84;51.35
60725;BME280;59881;36.722;-4.462;2023-03-16T01:09:20;100665.00;;;10.84;51.54
60725;BME280;59881;36.722;-4.462;2023-03-16T01:11:46;100867.09;;;12.01;51.75
60725;BME280;59881;36.722;-4.462;2023-03-16T01:14:19;100176.75;;;7.77;51.72
60725;BME280;59881;36.722;-4.462;2023-03-16T01:16:45;100184.31;;;7.82;51.87
60725;BME280;59881;36.722;-4.462;2023-03-16T01:19:11;100866.34;;;11.99;51.82
60725;BME280;59881;36.722;-4.462;2023-03-16T01:21:41;100271.16;;;8.33;51.99
60725;BME280;59881;36.722;-4.462;2023-03-16T01:24:07;100680.19;;;10.80;51.83
60725;BME280;59881;36.722;-4.462;2023-03-16T01:26:33;100870.06;;;11.97;51.52
60725;BME280;59881;36.722;-4.462;2023-03-16T01:28:59;100699.28;;;10.96;51.63
60725;BME280;59881;36.722;-4.462;2023-03-16T01:31:25;100746.16;;;9.54;51.51
60725;BME280;59881;36.722;-4.462;2023-03-16T01:33:52;100450.38;;;8.78;51.80
60725;BME280;59881;36.722;-4.462;2023-03-16T01:36:18;100076.22;;;6.94;51.66
60725;BME280;59881;36.722;-4.462;2023-03-16T01:38:43;100886.91;;;11.56;51.69
60725;BME280;59881;36.722;-4.462;2023-03-16T01:41:09;100383.81;;;9.19;51.15
60725;BME280;59881;36.722;-4.462;2023-03-16T01:43:36;100789.25;;;11.69;51.45
60725;BME280;59881;36.722;-4.462;2023-03-16T01:53:46;100845.88;;;11.90;51.20
60725;BME280;59881;36.722;-4.462;2023-03-16T01:56:16;100761.53;;;11.37;51.65
60725;BME280;59881;36.722;-4.462;2023-03-16T01:58:43;100837.84;;;11.79;51.70
60725;BME280;59881;36.722;-4.462;2023-03-16T02:01:11;100594.06;;;10.15;51.76
60725;BME280;59881;36.722;-4.462;2023-03-16T02:03:37;100290.38;;;8.61;51.63
60725;BME280;59881;36.722;-4.462;2023-03-16T02:06:18;100091.03;;;7.36;51.89
60725;BME280;59881;36.722;-4.462;2023-03-16T02:08:46;100918.72;;;11.80;51.96
60725;BME280;59881;36.722;-4.462;2023-03-16T02:11:13;100816.72;;;11.79;51.75
60725;BME280;59881;36.722;-4.462;2023-03-16T02:13:43;100433.13;;;9.56;51.53
60725;BME280;59881;36.722;-4.462;2023-03-16T02:16:10;100445.78;;;9.63;51.56
60725;BME280;59881;36.722;-4.462;2023-03-16T02:18:36;100876.78;;;11.75;51.36
60725;BME280;59881;36.722;-4.462;2023-03-16T02:21:30;100420.94;;;9.27;51.72
60725;BME280;59881;36.722;-4.462;2023-03-16T02:24:00;100529.75;;;9.25;51.59
60725;BME280;59881;36.722;-4.462;2023-03-16T02:26:36;100802.59;;;11.67;52.03
60725;BME280;59881;36.722;-4.462;2023-03-16T02:29:43;100805.00;;;11.57;51.78
60725;BME280;59881;36.722;-4.462;2023-03-16T02:32:10;100809.00;;;11.50;52.03
60725;BME280;59881;36.722;-4.462;2023-03-16T02:34:37;100739.88;;;11.07;52.35
60725;BME280;59881;36.722;-4.462;2023-03-16T02:37:03;100502.97;;;9.60;52.53
60725;BME280;59881;36.722;-4.462;2023-03-16T02:39:30;100704.63;;;10.82;52.38
60725;BME280;59881;36.722;-4.462;2023-03-16T02:41:55;101061.59;;;11.34;52.36
60725;BME280;59881;36.722;-4.462;2023-03-16T02:44:26;100795.69;;;11.26;52.55
60725;BME280;59881;36.722;-4.462;2023-03-16T02:46:59;100760.03;;;11.08;52.84
60725;BME280;59881;36.722;-4.462;2023-03-16T02:49:36;100409.09;;;7.80;53.04
60725;BME280;59881;36.722;-4.462;2023-03-16T02:52:04;100362.09;;;8.48;53.06
60725;BME280;59881;36.722;-4.462;2023-03-16T02:54:30;100542.81;;;9.81;53.48
60725;BME280;59881;36.722;-4.462;2023-03-16T02:56:55;100173.09;;;7.08;53.02
60725;BME280;59881;36.722;-4.462;2023-03-16T02:59:21;100609.97;;;10.13;53.52
60725;BME280;59881;36.722;-4.462;2023-03-16T03:01:46;100769.63;;;11.09;53.69
60725;BME280;59881;36.722;-4.462;2023-03-16T03:04:12;100779.41;;;10.54;53.48
60725;BME280;59881;36.722;-4.462;2023-03-16T03:06:38;100785.00;;;11.02;53.71
60725;BME280;59881;36.722;-4.462;2023-03-16T03:09:04;100756.31;;;10.97;53.49
60725;BME280;59881;36.722;-4.462;2023-03-16T03:11:30;100756.31;;;10.97;53.98
60725;BME280;59881;36.722;-4.462;2023-03-16T03:13:56;100421.16;;;8.97;53.92
60725;BME280;59881;36.722;-4.462;2023-03-16T03:16:22;100467.69;;;9.37;54.13
60725;BME280;59881;36.722;-4.462;2023-03-16T03:18:47;100363.16;;;8.59;53.97
60725;BME280;59881;36.722;-4.462;2023-03-16T03:21:13;100745.25;;;10.92;53.86
60725;BME280;59881;36.722;-4.462;2023-03-16T03:23:39;100731.72;;;10.84;53.94
60725;BME280;59881;36.722;-4.462;2023-03-16T03:26:05;100803.44;;;10.62;53.65
60725;BME280;59881;36.722;-4.462;2023-03-16T03:28:31;100734.06;;;10.76;53.93
60725;BME280;59881;36.722;-4.462;2023-03-16T03:30:59;100734.25;;;10.73;53.85
60725;BME280;59881;36.722;-4.462;2023-03-16T03:33:24;99991.59;;;5.91;54.17
60725;BME280;59881;36.722;-4.462;2023-03-16T03:35:57;100731.81;;;10.70;54.68
60725;BME280;59881;36.722;-4.462;2023-03-16T03:38:24;100312.22;;;8.05;54.28
60725;BME280;59881;36.722;-4.462;2023-03-16T03:40:53;100460.78;;;8.22;54.58
60725;BME280;59881;36.722;-4.462;2023-03-16T03:43:24;100734.66;;;10.67;54.65
60725;BME280;59881;36.722;-4.462;2023-03-16T03:45:57;100731.25;;;10.65;54.95
60725;BME280;59881;36.722;-4.462;2023-03-16T03:48:23;100587.50;;;9.68;55.01
60725;BME280;59881;36.722;-4.462;2023-03-16T03:50:49;99868.16;;;5.42;55.11
60725;BME280;59881;36.722;-4.462;2023-03-16T03:53:15;99884.22;;;5.50;55.25
60725;BME280;59881;36.722;-4.462;2023-03-16T03:55:41;100572.66;;;9.67;55.29
60725;BME280;59881;36.722;-4.462;2023-03-16T03:58:07;100415.59;;;8.75;55.39
60725;BME280;59881;36.722;-4.462;2023-03-16T04:00:32;100245.00;;;7.61;55.28
60725;BME280;59881;36.722;-4.462;2023-03-16T04:02:58;100544.22;;;9.59;55.64
60725;BME280;59881;36.722;-4.462;2023-03-16T04:05:24;100712.63;;;10.68;55.46
60725;BME280;59881;36.722;-4.462;2023-03-16T04:07:54;100621.16;;;10.17;55.22
60725;BME280;59881;36.722;-4.462;2023-03-16T04:10:30;100786.84;;;10.74;55.35
60725;BME280;59881;36.722;-4.462;2023-03-16T04:12:57;100402.38;;;8.62;55.05
60725;BME280;59881;36.722;-4.462;2023-03-16T04:15:24;100495.34;;;9.42;54.83
60725;BME280;59881;36.722;-4.462;2023-03-16T04:17:50;100709.78;;;10.71;54.48
60725;BME280;59881;36.722;-4.462;2023-03-16T04:20:17;100493.41;;;9.31;54.28
60725;BME280;59881;36.722;-4.462;2023-03-16T04:22:47;100670.97;;;10.47;54.41
60725;BME280;59881;36.722;-4.462;2023-03-16T04:25:15;100702.09;;;10.68;54.22
60725;BME280;59881;36.722;-4.462;2023-03-16T04:27:42;100696.84;;;10.68;54.05
60725;BME280;59881;36.722;-4.462;2023-03-16T04:30:11;100702.94;;;10.68;54.11
60725;BME280;59881;36.722;-4.462;2023-03-16T04:32:38;100129.78;;;7.17;53.38
60725;BME280;59881;36.722;-4.462;2023-03-16T04:35:05;100302.56;;;8.35;52.91
60725;BME280;59881;36.722;-4.462;2023-03-16T04:37:30;100719.53;;;10.83;52.64
60725;BME280;59881;36.722;-4.462;2023-03-16T04:39:56;100847.81;;;10.27;52.49
60725;BME280;59881;36.722;-4.462;2023-03-16T04:42:22;100604.41;;;9.91;52.74
60725;BME280;59881;36.722;-4.462;2023-03-16T04:44:47;100705.25;;;10.73;52.58
60725;BME280;59881;36.722;-4.462;2023-03-16T04:47:15;100702.63;;;10.73;52.28
60725;BME280;59881;36.722;-4.462;2023-03-16T04:49:41;99993.09;;;6.40;52.59
60725;BME280;59881;36.722;-4.462;2023-03-16T04:52:08;100501.88;;;8.66;52.62
60725;BME280;59881;36.722;-4.462;2023-03-16T04:54:34;100700.53;;;10.65;52.81
60725;BME280;59881;36.722;-4.462;2023-03-16T04:56:59;100708.72;;;10.61;52.50
60725;BME280;59881;36.722;-4.462;2023-03-16T04:59:26;100688.72;;;9.89;52.78
60725;BME280;59881;36.722;-4.462;2023-03-16T05:01:52;100632.38;;;10.06;52.74
60725;BME280;59881;36.722;-4.462;2023-03-16T05:04:18;100708.78;;;10.46;52.64
60725;BME280;59881;36.722;-4.462;2023-03-16T05:06:43;100075.72;;;6.58;53.21
60725;BME280;59881;36.722;-4.462;2023-03-16T05:09:09;100263.72;;;7.70;53.70
60725;BME280;59881;36.722;-4.462;2023-03-16T05:11:35;100714.66;;;10.37;53.69
60725;BME280;59881;36.722;-4.462;2023-03-16T05:14:00;100720.97;;;10.34;53.99
60725;BME280;59881;36.722;-4.462;2023-03-16T05:16:28;100730.09;;;10.29;54.57
60725;BME280;59881;36.722;-4.462;2023-03-16T05:18:57;100512.28;;;8.97;54.19
60725;BME280;59881;36.722;-4.462;2023-03-16T05:21:23;100682.94;;;9.70;54.59
60725;BME280;59881;36.722;-4.462;2023-03-16T05:23:49;100661.91;;;9.70;54.67
60725;BME280;59881;36.722;-4.462;2023-03-16T05:26:14;100497.25;;;8.70;54.70
60725;BME280;59881;36.722;-4.462;2023-03-16T05:28:40;100503.97;;;9.03;54.76
60725;BME280;59881;36.722;-4.462;2023-03-16T05:31:07;100435.84;;;8.58;54.76
60725;BME280;59881;36.722;-4.462;2023-03-16T05:33:32;100713.06;;;10.20;54.96
60725;BME280;59881;36.722;-4.462;2023-03-16T05:35:58;100699.03;;;9.65;55.33
60725;BME280;59881;36.722;-4.462;2023-03-16T05:38:24;100112.91;;;6.49;55.09
60725;BME280;59881;36.722;-4.462;2023-03-16T05:40:51;100227.84;;;7.13;55.01
60725;BME280;59881;36.722;-4.462;2023-03-16T05:43:19;100169.69;;;6.77;55.40
60725;BME280;59881;36.722;-4.462;2023-03-16T05:45:46;100540.03;;;9.01;55.52
60725;BME280;59881;36.722;-4.462;2023-03-16T05:48:12;100545.84;;;9.06;55.75
60725;BME280;59881;36.722;-4.462;2023-03-16T05:50:40;100656.06;;;9.79;56.16
60725;BME280;59881;36.722;-4.462;2023-03-16T05:53:06;100589.91;;;9.44;56.30
60725;BME280;59881;36.722;-4.462;2023-03-16T05:55:32;100735.28;;;10.16;56.06
60725;BME280;59881;36.722;-4.462;2023-03-16T05:57:57;100737.53;;;9.66;56.18
60725;BME280;59881;36.722;-4.462;2023-03-16T06:00:23;100701.56;;;10.08;55.98
60725;BME280;59881;36.722;-4.462;2023-03-16T06:02:50;100694.88;;;10.03;56.15
60725;BME280;59881;36.722;-4.462;2023-03-16T06:05:18;100889.78;;;10.01;56.20
60725;BME280;59881;36.722;-4.462;2023-03-16T06:07:44;100109.63;;;6.46;56.13
60725;BME280;59881;36.722;-4.462;2023-03-16T06:10:10;100704.19;;;10.08;56.40
60725;BME280;59881;36.722;-4.462;2023-03-16T06:12:36;99778.19;;;4.25;56.05
60725;BME280;59881;36.722;-4.462;2023-03-16T06:15:03;100442.72;;;7.73;56.37
60725;BME280;59881;36.722;-4.462;2023-03-16T06:17:32;100394.84;;;7.39;56.46
60725;BME280;59881;36.722;-4.462;2023-03-16T06:19:57;100645.13;;;9.44;56.53
60725;BME280;59881;36.722;-4.462;2023-03-16T06:22:23;100489.69;;;8.51;56.86
60725;BME280;59881;36.722;-4.462;2023-03-16T06:24:50;100730.50;;;10.08;56.60
60725;BME280;59881;36.722;-4.462;2023-03-16T06:27:15;100494.47;;;8.44;56.59
60725;BME280;59881;36.722;-4.462;2023-03-16T06:29:42;100123.78;;;6.27;56.67
60725;BME280;59881;36.722;-4.462;2023-03-16T06:32:08;100366.56;;;7.89;56.63
60725;BME280;59881;36.722;-4.462;2023-03-16T06:34:33;100700.38;;;10.54;56.38
60725;BME280;59881;36.722;-4.462;2023-03-16T06:36:59;100519.31;;;8.82;55.25
60725;BME280;59881;36.722;-4.462;2023-03-16T06:39:25;100360.13;;;9.72;54.00
60725;BME280;59881;36.722;-4.462;2023-03-16T06:41:50;100714.88;;;12.73;52.58
60725;BME280;59881;36.722;-4.462;2023-03-16T06:44:16;100620.66;;;12.49;50.65
60725;BME280;59881;36.722;-4.462;2023-03-16T06:46:41;99975.94;;;9.62;48.57
60725;BME280;59881;36.722;-4.462;2023-03-16T06:49:07;100693.41;;;14.98;47.09
60725;BME280;59881;36.722;-4.462;2023-03-16T06:51:32;100541.28;;;14.78;45.35
60725;BME280;59881;36.722;-4.462;2023-03-16T06:53:58;100786.81;;;16.36;43.56
60725;BME280;59881;36.722;-4.462;2023-03-16T06:56:23;100684.75;;;16.95;41.75
60725;BME280;59881;36.722;-4.462;2023-03-16T06:58:50;100433.03;;;16.00;39.99
60725;BME280;59881;36.722;-4.462;2023-03-16T07:01:16;100805.81;;;17.95;38.86
60725;BME280;59881;36.722;-4.462;2023-03-16T07:03:42;100680.34;;;18.60;37.58
60725;BME280;59881;36.722;-4.462;2023-03-16T07:06:07;100648.50;;;18.85;36.80
60725;BME280;59881;36.722;-4.462;2023-03-16T07:08:34;100545.88;;;18.79;35.65
60725;BME280;59881;36.722;-4.462;2023-03-16T07:10:59;100614.09;;;20.01;34.73
60725;BME280;59881;36.722;-4.462;2023-03-16T07:13:25;100686.66;;;21.13;33.82
60725;BME280;59881;36.722;-4.462;2023-03-16T07:15:52;100753.81;;;21.76;32.75
60725;BME280;59881;36.722;-4.462;2023-03-16T07:18:18;100644.91;;;21.98;31.98
60725;BME280;59881;36.722;-4.462;2023-03-16T07:20:45;100702.09;;;22.90;31.01
60725;BME280;59881;36.722;-4.462;2023-03-16T07:23:10;100701.41;;;23.41;30.11
60725;BME280;59881;36.722;-4.462;2023-03-16T07:25:37;100380.03;;;21.47;28.90
60725;BME280;59881;36.722;-4.462;2023-03-16T07:28:02;99978.72;;;19.85;27.93
60725;BME280;59881;36.722;-4.462;2023-03-16T07:30:28;100471.88;;;23.64;27.08
60725;BME280;59881;36.722;-4.462;2023-03-16T07:32:54;100693.16;;;25.65;26.00
60725;BME280;59881;36.722;-4.462;2023-03-16T07:35:20;100345.16;;;24.02;25.34
60725;BME280;59881;36.722;-4.462;2023-03-16T07:37:46;100225.81;;;23.74;24.98
60725;BME280;59881;36.722;-4.462;2023-03-16T07:40:12;100584.50;;;26.31;25.06
60725;BME280;59881;36.722;-4.462;2023-03-16T07:42:38;100697.06;;;27.50;24.41
60725;BME280;59881;36.722;-4.462;2023-03-16T07:45:05;100666.34;;;27.70;23.53
60725;BME280;59881;36.722;-4.462;2023-03-16T07:47:31;100706.28;;;28.26;22.99
60725;BME280;59881;36.722;-4.462;2023-03-16T07:49:58;100706.78;;;28.73;22.57
60725;BME280;59881;36.722;-4.462;2023-03-16T07:52:24;100694.34;;;29.09;21.91
60725;BME280;59881;36.722;-4.462;2023-03-16T07:54:49;100426.56;;;27.69;21.57
60725;BME280;59881;36.722;-4.462;2023-03-16T07:57:15;100449.97;;;28.50;21.07
60725;BME280;59881;36.722;-4.462;2023-03-16T07:59:41;100377.53;;;28.57;20.87
60725;BME280;59881;36.722;-4.462;2023-03-16T08:02:11;100718.28;;;30.77;19.88
60725;BME280;59881;36.722;-4.462;2023-03-16T08:04:37;100431.34;;;29.75;19.26
60725;BME280;59881;36.722;-4.462;2023-03-16T08:07:07;100596.31;;;31.21;18.95
60725;BME280;59881;36.722;-4.462;2023-03-16T08:09:33;100733.31;;;32.19;18.47
60725;BME280;59881;36.722;-4.462;2023-03-16T08:12:01;100624.50;;;32.29;18.04
60725;BME280;59881;36.722;-4.462;2023-03-16T08:14:28;100606.66;;;32.55;17.87
60725;BME280;59881;36.722;-4.462;2023-03-16T08:16:54;100696.94;;;33.54;17.43
60725;BME280;59881;36.722;-4.462;2023-03-16T08:19:20;100630.75;;;33.64;17.03
60725;BME280;59881;36.722;-4.462;2023-03-16T08:21:45;100701.69;;;34.35;16.57
60725;BME280;59881;36.722;-4.462;2023-03-16T08:24:11;100682.81;;;34.66;16.53
60725;BME280;59881;36.722;-4.462;2023-03-16T08:26:37;100399.13;;;33.33;16.58
60725;BME280;59881;36.722;-4.462;2023-03-16T08:29:02;100407.00;;;33.99;16.70
60725;BME280;59881;36.722;-4.462;2023-03-16T08:31:28;100714.19;;;36.37;15.95
60725;BME280;59881;36.722;-4.462;2023-03-16T08:33:55;100711.75;;;36.76;16.20
60725;BME280;59881;36.722;-4.462;2023-03-16T08:36:22;100764.66;;;37.07;16.39
60725;BME280;59881;36.722;-4.462;2023-03-16T08:38:48;100710.72;;;37.58;15.88
60725;BME280;59881;36.722;-4.462;2023-03-16T08:41:13;100715.19;;;37.93;15.09
60725;BME280;59881;36.722;-4.462;2023-03-16T08:43:42;100446.41;;;36.56;15.18
60725;BME280;59881;36.722;-4.462;2023-03-16T08:46:09;100683.72;;;38.49;14.43
60725;BME280;59881;36.722;-4.462;2023-03-16T08:48:34;100713.22;;;39.02;14.13
60725;BME280;59881;36.722;-4.462;2023-03-16T08:51:02;100709.72;;;39.44;13.42
60725;BME280;59881;36.722;-4.462;2023-03-16T08:53:27;100441.91;;;38.18;13.74
60725;BME280;59881;36.722;-4.462;2023-03-16T08:56:03;100703.03;;;40.26;13.26
60725;BME280;59881;36.722;-4.462;2023-03-16T08:58:31;100711.13;;;40.69;13.11
60725;BME280;59881;36.722;-4.462;2023-03-16T09:01:03;100705.66;;;40.97;12.85
60725;BME280;59881;36.722;-4.462;2023-03-16T09:03:31;100715.91;;;41.52;11.66
60725;BME280;59881;36.722;-4.462;2023-03-16T09:06:05;100723.69;;;42.00;11.94
60725;BME280;59881;36.722;-4.462;2023-03-16T09:08:31;100719.38;;;42.30;11.98
60725;BME280;59881;36.722;-4.462;2023-03-16T09:11:02;100713.44;;;42.68;11.44
60725;BME280;59881;36.722;-4.462;2023-03-16T09:13:29;100715.94;;;43.18;11.41
60725;BME280;59881;36.722;-4.462;2023-03-16T09:15:55;100715.69;;;43.46;10.65
60725;BME280;59881;36.722;-4.462;2023-03-16T09:18:22;100745.25;;;43.59;10.57
60725;BME280;59881;36.722;-4.462;2023-03-16T09:20:48;100714.78;;;43.94;10.37
60725;BME280;59881;36.722;-4.462;2023-03-16T09:23:14;100422.28;;;42.44;10.65
60725;BME280;59881;36.722;-4.462;2023-03-16T09:25:40;100647.50;;;44.24;9.73
60725;BME280;59881;36.722;-4.462;2023-03-16T09:28:05;100691.31;;;44.74;9.53
60725;BME280;59881;36.722;-4.462;2023-03-16T09:30:31;100549.28;;;44.37;9.63
60725;BME280;59881;36.722;-4.462;2023-03-16T09:32:57;100708.84;;;45.84;8.85
60725;BME280;59881;36.722;-4.462;2023-03-16T09:35:23;100709.13;;;46.25;8.63
60725;BME280;59881;36.722;-4.462;2023-03-16T09:37:49;100670.78;;;46.43;8.72
60725;BME280;59881;36.722;-4.462;2023-03-16T09:40:27;100705.00;;;47.01;8.11
60725;BME280;59881;36.722;-4.462;2023-03-16T09:45:48;100709.94;;;47.70;7.79
60725;BME280;59881;36.722;-4.462;2023-03-16T09:48:19;100660.06;;;47.68;7.36
60725;BME280;59881;36.722;-4.462;2023-03-16T09:50:46;100482.13;;;46.93;7.09
60725;BME280;59881;36.722;-4.462;2023-03-16T09:53:28;100711.19;;;48.73;7.13
60725;BME280;59881;36.722;-4.462;2023-03-16T09:56:42;100579.22;;;48.32;6.85
60725;BME280;59881;36.722;-4.462;2023-03-16T09:58:48;100503.06;;;48.35;6.77
60725;BME280;59881;36.722;-4.462;2023-03-16T10:01:36;100705.00;;;49.85;6.66
60725;BME280;59881;36.722;-4.462;2023-03-16T10:10:25;100661.63;;;50.18;6.64
60725;BME280;59881;36.722;-4.462;2023-03-16T10:12:51;100706.84;;;50.86;5.71
60725;BME280;59881;36.722;-4.462;2023-03-16T10:15:21;100709.81;;;51.23;5.12
60725;BME280;59881;36.722;-4.462;2023-03-16T10:20:26;100697.97;;;51.98;5.60
60725;BME280;59881;36.722;-4.462;2023-03-16T10:22:53;100703.94;;;52.33;5.35
60725;BME280;59881;36.722;-4.462;2023-03-16T10:28:14;100706.53;;;53.01;4.83
60725;BME280;59881;36.722;-4.462;2023-03-16T10:30:42;100702.31;;;53.36;5.15
60725;BME280;59881;36.722;-4.462;2023-03-16T10:33:28;100692.03;;;53.76;4.88
60725;BME280;59881;36.722;-4.462;2023-03-16T10:36:02;100696.16;;;53.96;4.92
60725;BME280;59881;36.722;-4.462;2023-03-16T10:38:36;100496.41;;;53.16;4.17
60725;BME280;59881;36.722;-4.462;2023-03-16T10:43:51;100463.03;;;53.18;4.54
60725;BME280;59881;36.722;-4.462;2023-03-16T10:46:20;100715.91;;;55.11;3.08
60725;BME280;59881;36.722;-4.462;2023-03-16T10:48:57;100672.88;;;54.61;4.06
60725;BME280;59881;36.722;-4.462;2023-03-16T10:51:32;100706.06;;;52.06;4.83
60725;BME280;59881;36.722;-4.462;2023-03-16T10:54:14;100678.88;;;50.20;5.63
60725;BME280;59881;36.722;-4.462;2023-03-16T10:56:40;100686.47;;;48.75;6.82
60725;BME280;59881;36.722;-4.462;2023-03-16T10:59:32;100685.22;;;42.97;8.44
60725;BME280;59881;36.722;-4.462;2023-03-16T11:02:02;100257.59;;;33.57;11.82
60725;BME280;59881;36.722;-4.462;2023-03-16T11:04:32;100697.31;;;32.00;14.45
60725;BME280;59881;36.722;-4.462;2023-03-16T11:06:58;100436.25;;;27.76;17.17
60725;BME280;59881;36.722;-4.462;2023-03-16T11:09:30;100664.06;;;27.73;18.80
60725;BME280;59881;36.722;-4.462;2023-03-16T11:11:58;100716.69;;;26.66;20.11
60725;BME280;59881;36.722;-4.462;2023-03-16T11:14:27;100705.31;;;25.89;21.60
60725;BME280;59881;36.722;-4.462;2023-03-16T11:17:06;100713.88;;;25.57;22.12
60725;BME280;59881;36.722;-4.462;2023-03-16T11:19:40;100712.28;;;25.07;22.47
60725;BME280;59881;36.722;-4.462;2023-03-16T11:22:18;100637.03;;;24.06;23.13
60725;BME280;59881;36.722;-4.462;2023-03-16T11:28:23;100690.81;;;23.84;24.10
60725;BME280;59881;36.722;-4.462;2023-03-16T11:32:55;100793.81;;;23.25;24.50
60725;BME280;59881;36.722;-4.462;2023-03-16T11:38:40;100710.16;;;22.90;25.39
60725;BME280;59881;36.722;-4.462;2023-03-16T11:41:35;100303.97;;;20.33;25.31
60725;BME280;59881;36.722;-4.462;2023-03-16T11:44:32;100704.81;;;22.21;25.47
60725;BME280;59881;36.722;-4.462;2023-03-16T11:50:01;100275.16;;;19.56;25.92
60725;BME280;59881;36.722;-4.462;2023-03-16T11:55:34;100796.19;;;21.80;26.67
60725;BME280;59881;36.722;-4.462;2023-03-16T12:01:11;100696.75;;;21.59;27.13
60725;BME280;59881;36.722;-4.462;2023-03-16T12:09:19;100689.06;;;21.47;27.82
60725;BME280;59881;36.722;-4.462;2023-03-16T12:12:02;100697.09;;;21.56;27.28
60725;BME280;59881;36.722;-4.462;2023-03-16T12:14:42;100163.75;;;18.27;27.78
60725;BME280;59881;36.722;-4.462;2023-03-16T12:17:19;100684.03;;;21.53;27.77
60725;BME280;59881;36.722;-4.462;2023-03-16T12:25:33;100668.72;;;21.14;27.51
60725;BME280;59881;36.722;-4.462;2023-03-16T12:28:00;100673.75;;;21.17;27.45
60725;BME280;59881;36.722;-4.462;2023-03-16T12:39:03;100664.63;;;21.34;26.03
60725;BME280;59881;36.722;-4.462;2023-03-16T12:44:55;99900.22;;;16.74;24.90
60725;BME280;59881;36.722;-4.462;2023-03-16T12:49:51;100635.03;;;21.27;25.15
60725;BME280;59881;36.722;-4.462;2023-03-16T12:52:17;100716.25;;;21.20;24.67
60725;BME280;59881;36.722;-4.462;2023-03-16T12:54:51;100445.63;;;20.10;24.85
60725;BME280;59881;36.722;-4.462;2023-03-16T12:57:17;100619.00;;;21.19;24.49
60725;BME280;59881;36.722;-4.462;2023-03-16T12:59:46;100507.78;;;19.79;24.60
60725;BME280;59881;36.722;-4.462;2023-03-16T13:02:34;100618.47;;;21.24;25.51
60725;BME280;59881;36.722;-4.462;2023-03-16T13:07:35;100247.50;;;18.99;26.12
60725;BME280;59881;36.722;-4.462;2023-03-16T13:10:09;100744.22;;;21.25;26.13
60725;BME280;59881;36.722;-4.462;2023-03-16T13:12:42;100032.19;;;17.52;26.68
60725;BME280;59881;36.722;-4.462;2023-03-16T13:18:33;100516.28;;;20.40;27.83
60725;BME280;59881;36.722;-4.462;2023-03-16T13:20:58;100472.03;;;20.04;27.55
60725;BME280;59881;36.722;-4.462;2023-03-16T13:23:26;100603.53;;;20.90;27.45
60725;BME280;59881;36.722;-4.462;2023-03-16T13:28:48;100582.78;;;20.84;28.08
60725;BME280;59881;36.722;-4.462;2023-03-16T13:31:36;100578.63;;;20.81;28.01
60725;BME280;59881;36.722;-4.462;2023-03-16T13:34:07;100582.81;;;20.76;28.11
60725;BME280;59881;36.722;-4.462;2023-03-16T13:36:36;100580.00;;;20.36;28.21
60725;BME280;59881;36.722;-4.462;2023-03-16T13:39:19;100568.06;;;20.80;28.33
60725;BME280;59881;36.722;-4.462;2023-03-16T13:44:22;100338.78;;;19.28;28.41
60725;BME280;59881;36.722;-4.462;2023-03-16T13:46:49;100575.94;;;20.73;28.86
60725;BME280;59881;36.722;-4.462;2023-03-16T13:49:18;100416.09;;;19.78;28.48
60725;BME280;59881;36.722;-4.462;2023-03-16T13:51:45;99867.31;;;16.33;28.32
60725;BME280;59881;36.722;-4.462;2023-03-16T13:54:26;99892.97;;;16.50;29.19
60725;BME280;59881;36.722;-4.462;2023-03-16T13:57:00;100641.38;;;20.62;29.12
60725;BME280;59881;36.722;-4.462;2023-03-16T13:59:28;100317.09;;;18.39;29.06
60725;BME280;59881;36.722;-4.462;2023-03-16T14:01:58;100333.00;;;18.65;28.10
60725;BME280;59881;36.722;-4.462;2023-03-16T14:04:28;100567.09;;;20.56;27.99
60725;BME280;59881;36.722;-4.462;2023-03-16T14:06:55;100560.41;;;20.60;27.54
60725;BME280;59881;36.722;-4.462;2023-03-16T14:09:24;100033.66;;;17.38;27.52